This is the latest recevied weather packets stored in our database for station/object CT7BNL-13. If no packets are shown the sender has not sent any weather packets the latest 10 day(s).
| Time | Temp. | Humidity | Pressure | Rain* | Wind** | Luminosity | Snow |
|---|---|---|---|---|---|---|---|
| 1788137367 | 14.44° C | 95% | 1027.9 hPa | 0 mm | - | 0 W/m² | - |
| 1788136465 | 14.44° C | 93% | 1027.9 hPa | 0 mm | - | 0 W/m² | - |
| 1788135564 | 14.44° C | 93% | 1028.2 hPa | 0 mm | - | 0 W/m² | - |
| 1788133765 | 15° C | 93% | 1028.1 hPa | 0 mm | - | 0 W/m² | - |
| 1788132866 | 15° C | 92% | 1028.1 hPa | 0 mm | - | 0 W/m² | - |
| 1788131965 | 15° C | 91% | 1028.3 hPa | 0 mm | - | 0 W/m² | - |
| 1788131064 | 15.56° C | 91% | 1028.3 hPa | 0 mm | - | 0 W/m² | - |
| 1788130166 | 15.56° C | 92% | 1028.3 hPa | 0 mm | - | 0 W/m² | - |
| 1788129265 | 15.56° C | 91% | 1028.1 hPa | 0 mm | - | 0 W/m² | - |
| 1788128365 | 15.56° C | 90% | 1028 hPa | 0 mm | - | 0 W/m² | - |
| 1788127465 | 15.56° C | 90% | 1028.3 hPa | 0 mm | - | 0 W/m² | - |
| 1788126565 | 16.11° C | 90% | 1028.4 hPa | 0 mm | - | 0 W/m² | - |
| 1788125676 | 16.11° C | 88% | 1028.4 hPa | 0 mm | - | 0 W/m² | - |
| 1788124765 | 16.67° C | 87% | 1028.2 hPa | 0 mm | - | 0 W/m² | - |
| 1788123865 | 16.67° C | 86% | 1028 hPa | 0 mm | - | 0 W/m² | - |
| 1788122965 | 16.67° C | 85% | 1027.9 hPa | 0 mm | - | 0 W/m² | - |
| 1788122064 | 17.22° C | 83% | 1027.7 hPa | 0 mm | - | 0 W/m² | - |
| 1788121166 | 17.22° C | 83% | 1027.5 hPa | 0 mm | - | 0 W/m² | - |
| 1788120265 | 17.78° C | 81% | 1027.4 hPa | 0 mm | - | 0 W/m² | - |
| 1788119365 | 18.33° C | 80% | 1027.2 hPa | 0 mm | - | 0 W/m² | - |
| 1788118465 | 18.89° C | 78% | 1027.1 hPa | 0 mm | - | 0 W/m² | - |
| 1788117565 | 19.44° C | 75% | 1027.2 hPa | 0 mm | - | 0 W/m² | - |
| 1788116665 | 20° C | 72% | 1026.8 hPa | 0 mm | - | 6 W/m² | - |
| 1788115764 | 20.56° C | 68% | 1026.7 hPa | 0 mm | - | 18 W/m² | - |
| 1788114866 | 21.67° C | 64% | 1026.6 hPa | 0 mm | - | 33 W/m² | - |
* Rain latest hour (hover to see other rain measurements)
** Current wind speed in m/s (hover to see current wind gust speed)